sensor_id;sensor_type;location;lat;lon;timestamp;temperature;humidity
21787;DHT22;11055;50.870;4.316;2024-01-30T00:00:15;11.50;99.90
21787;DHT22;11055;50.870;4.316;2024-01-30T00:02:41;11.50;99.90
21787;DHT22;11055;50.870;4.316;2024-01-30T00:05:08;11.50;99.90
21787;DHT22;11055;50.870;4.316;2024-01-30T00:07:34;11.40;99.90
21787;DHT22;11055;50.870;4.316;2024-01-30T00:10:00;11.40;99.90
21787;DHT22;11055;50.870;4.316;2024-01-30T00:12:25;11.40;99.90
21787;DHT22;11055;50.870;4.316;2024-01-30T00:14:51;11.40;99.90
21787;DHT22;11055;50.870;4.316;2024-01-30T00:17:17;11.50;99.90
21787;DHT22;11055;50.870;4.316;2024-01-30T00:19:44;11.60;99.90
21787;DHT22;11055;50.870;4.316;2024-01-30T00:22:10;11.60;99.90
21787;DHT22;11055;50.870;4.316;2024-01-30T00:24:36;11.60;99.90
21787;DHT22;11055;50.870;4.316;2024-01-30T00:27:01;11.60;99.90
21787;DHT22;11055;50.870;4.316;2024-01-30T00:29:27;11.60;99.90
21787;DHT22;11055;50.870;4.316;2024-01-30T00:31:56;11.60;99.90
21787;DHT22;11055;50.870;4.316;2024-01-30T00:34:22;11.70;99.90
21787;DHT22;11055;50.870;4.316;2024-01-30T00:36:47;11.70;99.90
21787;DHT22;11055;50.870;4.316;2024-01-30T00:39:13;11.70;99.90
21787;DHT22;11055;50.870;4.316;2024-01-30T00:41:41;11.70;99.90
21787;DHT22;11055;50.870;4.316;2024-01-30T00:44:06;11.70;99.90
21787;DHT22;11055;50.870;4.316;2024-01-30T00:46:32;11.60;99.90
21787;DHT22;11055;50.870;4.316;2024-01-30T00:48:58;11.60;99.90
21787;DHT22;11055;50.870;4.316;2024-01-30T00:51:24;11.60;99.90
21787;DHT22;11055;50.870;4.316;2024-01-30T00:53:49;11.70;99.90
21787;DHT22;11055;50.870;4.316;2024-01-30T00:56:15;11.60;99.90
21787;DHT22;11055;50.870;4.316;2024-01-30T00:58:43;11.60;99.90
21787;DHT22;11055;50.870;4.316;2024-01-30T01:01:09;11.60;99.90
21787;DHT22;11055;50.870;4.316;2024-01-30T01:03:35;11.60;99.90
21787;DHT22;11055;50.870;4.316;2024-01-30T01:06:00;11.60;99.90
21787;DHT22;11055;50.870;4.316;2024-01-30T01:08:26;11.60;99.90
21787;DHT22;11055;50.870;4.316;2024-01-30T01:10:52;11.60;99.90
21787;DHT22;11055;50.870;4.316;2024-01-30T01:13:17;11.70;99.90
21787;DHT22;11055;50.870;4.316;2024-01-30T01:15:43;11.70;99.90
21787;DHT22;11055;50.870;4.316;2024-01-30T01:18:09;11.70;99.90
21787;DHT22;11055;50.870;4.316;2024-01-30T01:20:35;11.70;99.90
21787;DHT22;11055;50.870;4.316;2024-01-30T01:23:01;11.60;99.90
21787;DHT22;11055;50.870;4.316;2024-01-30T01:25:26;11.70;99.90
21787;DHT22;11055;50.870;4.316;2024-01-30T01:27:52;11.70;99.90
21787;DHT22;11055;50.870;4.316;2024-01-30T01:30:18;11.70;99.90
21787;DHT22;11055;50.870;4.316;2024-01-30T01:32:51;11.70;99.90
21787;DHT22;11055;50.870;4.316;2024-01-30T01:35:24;11.70;99.90
21787;DHT22;11055;50.870;4.316;2024-01-30T01:37:53;11.70;99.90
21787;DHT22;11055;50.870;4.316;2024-01-30T01:40:27;11.70;99.90
21787;DHT22;11055;50.870;4.316;2024-01-30T01:42:56;11.80;99.90
21787;DHT22;11055;50.870;4.316;2024-01-30T01:45:22;11.80;99.90
21787;DHT22;11055;50.870;4.316;2024-01-30T01:47:51;11.80;99.90
21787;DHT22;11055;50.870;4.316;2024-01-30T01:50:18;11.80;99.90
21787;DHT22;11055;50.870;4.316;2024-01-30T01:52:44;11.90;99.90
21787;DHT22;11055;50.870;4.316;2024-01-30T01:55:12;11.90;99.90
21787;DHT22;11055;50.870;4.316;2024-01-30T01:57:39;11.90;99.90
21787;DHT22;11055;50.870;4.316;2024-01-30T02:00:05;11.90;99.90
21787;DHT22;11055;50.870;4.316;2024-01-30T02:02:35;11.80;99.90
21787;DHT22;11055;50.870;4.316;2024-01-30T02:05:02;11.80;99.90
21787;DHT22;11055;50.870;4.316;2024-01-30T02:07:30;11.90;99.90
21787;DHT22;11055;50.870;4.316;2024-01-30T02:09:56;11.80;99.90
21787;DHT22;11055;50.870;4.316;2024-01-30T02:12:22;11.80;99.90
21787;DHT22;11055;50.870;4.316;2024-01-30T02:14:49;11.80;99.90
21787;DHT22;11055;50.870;4.316;2024-01-30T02:17:15;11.80;99.90
21787;DHT22;11055;50.870;4.316;2024-01-30T02:19:41;11.80;99.90
21787;DHT22;11055;50.870;4.316;2024-01-30T02:22:08;11.80;99.90
21787;DHT22;11055;50.870;4.316;2024-01-30T02:24:34;11.80;99.90
21787;DHT22;11055;50.870;4.316;2024-01-30T02:27:00;11.80;99.90
21787;DHT22;11055;50.870;4.316;2024-01-30T02:29:25;11.90;99.90
21787;DHT22;11055;50.870;4.316;2024-01-30T02:31:51;11.90;99.90
21787;DHT22;11055;50.870;4.316;2024-01-30T02:34:18;11.90;99.90
21787;DHT22;11055;50.870;4.316;2024-01-30T02:36:45;11.80;99.90
21787;DHT22;11055;50.870;4.316;2024-01-30T02:39:10;11.80;99.90
21787;DHT22;11055;50.870;4.316;2024-01-30T02:41:36;11.90;99.90
21787;DHT22;11055;50.870;4.316;2024-01-30T02:44:03;11.90;99.90
21787;DHT22;11055;50.870;4.316;2024-01-30T02:46:29;11.90;99.90
21787;DHT22;11055;50.870;4.316;2024-01-30T02:48:55;11.90;99.90
21787;DHT22;11055;50.870;4.316;2024-01-30T02:51:20;11.90;99.90
21787;DHT22;11055;50.870;4.316;2024-01-30T02:53:46;11.90;99.90
21787;DHT22;11055;50.870;4.316;2024-01-30T02:56:12;11.90;99.90
21787;DHT22;11055;50.870;4.316;2024-01-30T02:58:39;11.80;99.90
21787;DHT22;11055;50.870;4.316;2024-01-30T03:01:05;11.90;99.90
21787;DHT22;11055;50.870;4.316;2024-01-30T03:03:31;11.80;99.90
21787;DHT22;11055;50.870;4.316;2024-01-30T03:05:56;11.80;99.90
21787;DHT22;11055;50.870;4.316;2024-01-30T03:08:22;11.80;99.90
21787;DHT22;11055;50.870;4.316;2024-01-30T03:10:48;11.80;99.90
21787;DHT22;11055;50.870;4.316;2024-01-30T03:13:14;11.80;99.90
21787;DHT22;11055;50.870;4.316;2024-01-30T03:15:39;11.70;99.90
21787;DHT22;11055;50.870;4.316;2024-01-30T03:18:05;11.70;99.90
21787;DHT22;11055;50.870;4.316;2024-01-30T03:20:31;11.80;99.90
21787;DHT22;11055;50.870;4.316;2024-01-30T03:22:57;11.80;99.90
21787;DHT22;11055;50.870;4.316;2024-01-30T03:25:25;11.90;99.90
21787;DHT22;11055;50.870;4.316;2024-01-30T03:27:51;11.90;99.90
21787;DHT22;11055;50.870;4.316;2024-01-30T03:30:16;11.90;99.90
21787;DHT22;11055;50.870;4.316;2024-01-30T03:32:43;11.80;99.90
21787;DHT22;11055;50.870;4.316;2024-01-30T03:35:09;11.80;99.90
21787;DHT22;11055;50.870;4.316;2024-01-30T03:37:35;11.80;99.90
21787;DHT22;11055;50.870;4.316;2024-01-30T03:40:02;11.70;99.90
21787;DHT22;11055;50.870;4.316;2024-01-30T03:42:28;11.70;99.90
21787;DHT22;11055;50.870;4.316;2024-01-30T03:44:53;11.70;99.90
21787;DHT22;11055;50.870;4.316;2024-01-30T03:47:21;11.70;99.90
21787;DHT22;11055;50.870;4.316;2024-01-30T03:49:47;11.70;99.90
21787;DHT22;11055;50.870;4.316;2024-01-30T03:52:12;11.70;99.90
21787;DHT22;11055;50.870;4.316;2024-01-30T03:54:38;11.60;99.90
21787;DHT22;11055;50.870;4.316;2024-01-30T03:57:04;11.60;99.90
21787;DHT22;11055;50.870;4.316;2024-01-30T03:59:30;11.60;99.90
21787;DHT22;11055;50.870;4.316;2024-01-30T04:01:55;11.60;99.90
21787;DHT22;11055;50.870;4.316;2024-01-30T04:04:21;11.60;99.90
21787;DHT22;11055;50.870;4.316;2024-01-30T04:06:47;11.60;99.90
21787;DHT22;11055;50.870;4.316;2024-01-30T04:09:13;11.60;99.90
21787;DHT22;11055;50.870;4.316;2024-01-30T04:11:41;11.50;99.90
21787;DHT22;11055;50.870;4.316;2024-01-30T04:14:08;11.60;99.90
21787;DHT22;11055;50.870;4.316;2024-01-30T04:16:33;11.60;99.90
21787;DHT22;11055;50.870;4.316;2024-01-30T04:18:59;11.70;99.90
21787;DHT22;11055;50.870;4.316;2024-01-30T04:21:24;11.70;99.90
21787;DHT22;11055;50.870;4.316;2024-01-30T04:23:53;11.60;99.90
21787;DHT22;11055;50.870;4.316;2024-01-30T04:26:19;11.60;99.90
21787;DHT22;11055;50.870;4.316;2024-01-30T04:28:45;11.70;99.90
21787;DHT22;11055;50.870;4.316;2024-01-30T04:31:11;11.80;99.90
21787;DHT22;11055;50.870;4.316;2024-01-30T04:33:37;11.70;99.90
21787;DHT22;11055;50.870;4.316;2024-01-30T04:36:03;11.70;99.90
21787;DHT22;11055;50.870;4.316;2024-01-30T04:38:29;11.70;99.90
21787;DHT22;11055;50.870;4.316;2024-01-30T04:40:55;11.70;99.90
21787;DHT22;11055;50.870;4.316;2024-01-30T04:43:21;11.70;99.90
21787;DHT22;11055;50.870;4.316;2024-01-30T04:45:47;11.70;99.90
21787;DHT22;11055;50.870;4.316;2024-01-30T04:48:13;11.70;99.90
21787;DHT22;11055;50.870;4.316;2024-01-30T04:50:39;11.70;99.90
21787;DHT22;11055;50.870;4.316;2024-01-30T04:53:04;11.70;99.90
21787;DHT22;11055;50.870;4.316;2024-01-30T04:55:30;11.70;99.90
21787;DHT22;11055;50.870;4.316;2024-01-30T04:57:56;11.70;99.90
21787;DHT22;11055;50.870;4.316;2024-01-30T05:00:21;11.70;99.90
21787;DHT22;11055;50.870;4.316;2024-01-30T05:02:47;11.70;99.90
21787;DHT22;11055;50.870;4.316;2024-01-30T05:05:12;11.60;99.90
21787;DHT22;11055;50.870;4.316;2024-01-30T05:07:40;11.70;99.90
21787;DHT22;11055;50.870;4.316;2024-01-30T05:10:06;11.70;99.90
21787;DHT22;11055;50.870;4.316;2024-01-30T05:12:32;11.70;99.90
21787;DHT22;11055;50.870;4.316;2024-01-30T05:14:57;11.70;99.90
21787;DHT22;11055;50.870;4.316;2024-01-30T05:17:23;11.70;99.90
21787;DHT22;11055;50.870;4.316;2024-01-30T05:19:49;11.70;99.90
21787;DHT22;11055;50.870;4.316;2024-01-30T05:22:14;11.60;99.90
21787;DHT22;11055;50.870;4.316;2024-01-30T05:24:41;11.60;99.90
21787;DHT22;11055;50.870;4.316;2024-01-30T05:27:10;11.70;99.90
21787;DHT22;11055;50.870;4.316;2024-01-30T05:29:35;11.70;99.90
21787;DHT22;11055;50.870;4.316;2024-01-30T05:32:01;11.60;99.90
21787;DHT22;11055;50.870;4.316;2024-01-30T05:34:27;11.50;99.90
21787;DHT22;11055;50.870;4.316;2024-01-30T05:36:53;11.60;99.90
21787;DHT22;11055;50.870;4.316;2024-01-30T05:39:18;11.60;99.90
21787;DHT22;11055;50.870;4.316;2024-01-30T05:41:44;11.60;99.90
21787;DHT22;11055;50.870;4.316;2024-01-30T05:44:10;11.60;99.90
21787;DHT22;11055;50.870;4.316;2024-01-30T05:46:35;11.60;99.90
21787;DHT22;11055;50.870;4.316;2024-01-30T05:49:01;11.60;99.90
21787;DHT22;11055;50.870;4.316;2024-01-30T05:51:27;11.70;99.90
21787;DHT22;11055;50.870;4.316;2024-01-30T05:53:53;11.70;99.90
21787;DHT22;11055;50.870;4.316;2024-01-30T05:56:20;11.70;99.90
21787;DHT22;11055;50.870;4.316;2024-01-30T05:58:46;11.80;99.90
21787;DHT22;11055;50.870;4.316;2024-01-30T06:01:11;11.80;99.90
21787;DHT22;11055;50.870;4.316;2024-01-30T06:03:37;11.80;99.90
21787;DHT22;11055;50.870;4.316;2024-01-30T06:06:04;11.80;99.90
21787;DHT22;11055;50.870;4.316;2024-01-30T06:08:30;11.80;99.90
21787;DHT22;11055;50.870;4.316;2024-01-30T06:10:55;11.70;99.90
21787;DHT22;11055;50.870;4.316;2024-01-30T06:13:21;11.70;99.90
21787;DHT22;11055;50.870;4.316;2024-01-30T06:15:47;11.70;99.90
21787;DHT22;11055;50.870;4.316;2024-01-30T06:18:12;11.70;99.90
21787;DHT22;11055;50.870;4.316;2024-01-30T06:20:38;11.70;99.90
21787;DHT22;11055;50.870;4.316;2024-01-30T06:23:04;11.60;99.90
21787;DHT22;11055;50.870;4.316;2024-01-30T06:25:30;11.70;99.90
21787;DHT22;11055;50.870;4.316;2024-01-30T06:27:55;11.70;99.90
21787;DHT22;11055;50.870;4.316;2024-01-30T06:30:21;11.70;99.90
21787;DHT22;11055;50.870;4.316;2024-01-30T06:32:47;11.70;99.90
21787;DHT22;11055;50.870;4.316;2024-01-30T06:35:12;11.70;99.90
21787;DHT22;11055;50.870;4.316;2024-01-30T06:37:38;11.70;99.90
21787;DHT22;11055;50.870;4.316;2024-01-30T06:40:04;11.70;99.90
21787;DHT22;11055;50.870;4.316;2024-01-30T06:42:31;11.70;99.90
21787;DHT22;11055;50.870;4.316;2024-01-30T06:44:57;11.70;99.90
21787;DHT22;11055;50.870;4.316;2024-01-30T06:47:23;11.70;99.90
21787;DHT22;11055;50.870;4.316;2024-01-30T06:49:49;11.70;99.90
21787;DHT22;11055;50.870;4.316;2024-01-30T06:52:14;11.70;99.90
21787;DHT22;11055;50.870;4.316;2024-01-30T06:54:40;11.80;99.90
21787;DHT22;11055;50.870;4.316;2024-01-30T06:57:06;11.80;99.90
21787;DHT22;11055;50.870;4.316;2024-01-30T06:59:38;11.80;99.90
21787;DHT22;11055;50.870;4.316;2024-01-30T07:02:12;11.80;99.90
21787;DHT22;11055;50.870;4.316;2024-01-30T07:04:38;11.90;99.90
21787;DHT22;11055;50.870;4.316;2024-01-30T07:07:05;11.80;99.90
21787;DHT22;11055;50.870;4.316;2024-01-30T07:09:31;11.80;99.90
21787;DHT22;11055;50.870;4.316;2024-01-30T07:11:57;11.90;99.90
21787;DHT22;11055;50.870;4.316;2024-01-30T07:14:24;11.80;99.90
21787;DHT22;11055;50.870;4.316;2024-01-30T07:16:50;11.90;99.90
21787;DHT22;11055;50.870;4.316;2024-01-30T07:19:16;11.80;99.90
21787;DHT22;11055;50.870;4.316;2024-01-30T07:21:42;11.70;99.90
21787;DHT22;11055;50.870;4.316;2024-01-30T07:24:07;11.80;99.90
21787;DHT22;11055;50.870;4.316;2024-01-30T07:26:33;11.80;99.90
21787;DHT22;11055;50.870;4.316;2024-01-30T07:28:59;11.80;99.90
21787;DHT22;11055;50.870;4.316;2024-01-30T07:31:24;11.80;99.90
21787;DHT22;11055;50.870;4.316;2024-01-30T07:33:50;11.80;99.90
21787;DHT22;11055;50.870;4.316;2024-01-30T07:36:16;11.80;99.90
21787;DHT22;11055;50.870;4.316;2024-01-30T07:38:41;11.80;99.90
21787;DHT22;11055;50.870;4.316;2024-01-30T07:41:07;11.80;99.90
21787;DHT22;11055;50.870;4.316;2024-01-30T07:43:33;11.80;99.90
21787;DHT22;11055;50.870;4.316;2024-01-30T07:45:59;11.90;99.90
21787;DHT22;11055;50.870;4.316;2024-01-30T07:48:26;11.90;99.90
21787;DHT22;11055;50.870;4.316;2024-01-30T07:50:52;12.00;99.90
21787;DHT22;11055;50.870;4.316;2024-01-30T07:53:18;11.90;99.90
21787;DHT22;11055;50.870;4.316;2024-01-30T07:55:47;11.90;99.90
21787;DHT22;11055;50.870;4.316;2024-01-30T07:58:12;11.90;99.90
21787;DHT22;11055;50.870;4.316;2024-01-30T08:00:38;11.90;99.90
21787;DHT22;11055;50.870;4.316;2024-01-30T08:03:04;12.00;99.90
21787;DHT22;11055;50.870;4.316;2024-01-30T08:05:30;12.00;99.90
21787;DHT22;11055;50.870;4.316;2024-01-30T08:07:56;12.00;99.90
21787;DHT22;11055;50.870;4.316;2024-01-30T08:10:22;11.90;99.90
21787;DHT22;11055;50.870;4.316;2024-01-30T08:12:48;11.90;99.90
21787;DHT22;11055;50.870;4.316;2024-01-30T08:15:13;11.80;99.90
21787;DHT22;11055;50.870;4.316;2024-01-30T08:17:40;11.90;99.90
21787;DHT22;11055;50.870;4.316;2024-01-30T08:20:06;11.90;99.90
21787;DHT22;11055;50.870;4.316;2024-01-30T08:22:33;12.00;99.90
21787;DHT22;11055;50.870;4.316;2024-01-30T08:24:59;12.00;99.90
21787;DHT22;11055;50.870;4.316;2024-01-30T08:27:25;12.00;99.90
21787;DHT22;11055;50.870;4.316;2024-01-30T08:29:50;12.00;99.90
21787;DHT22;11055;50.870;4.316;2024-01-30T08:32:16;12.10;99.90
21787;DHT22;11055;50.870;4.316;2024-01-30T08:34:42;12.10;99.90
21787;DHT22;11055;50.870;4.316;2024-01-30T08:37:08;12.10;99.90
21787;DHT22;11055;50.870;4.316;2024-01-30T08:39:33;12.20;99.90
21787;DHT22;11055;50.870;4.316;2024-01-30T08:41:59;12.30;99.90
21787;DHT22;11055;50.870;4.316;2024-01-30T08:44:25;12.30;99.90
21787;DHT22;11055;50.870;4.316;2024-01-30T08:46:51;12.30;99.90
21787;DHT22;11055;50.870;4.316;2024-01-30T08:49:17;12.30;99.90
21787;DHT22;11055;50.870;4.316;2024-01-30T08:51:42;12.20;99.90
21787;DHT22;11055;50.870;4.316;2024-01-30T08:54:08;12.20;99.90
21787;DHT22;11055;50.870;4.316;2024-01-30T08:56:34;12.20;99.90
21787;DHT22;11055;50.870;4.316;2024-01-30T08:58:59;12.20;99.90
21787;DHT22;11055;50.870;4.316;2024-01-30T09:01:25;12.20;99.90
21787;DHT22;11055;50.870;4.316;2024-01-30T09:03:52;12.20;99.90
21787;DHT22;11055;50.870;4.316;2024-01-30T09:06:17;12.10;99.90
21787;DHT22;11055;50.870;4.316;2024-01-30T09:08:43;12.10;99.90
21787;DHT22;11055;50.870;4.316;2024-01-30T09:11:13;12.20;99.90
21787;DHT22;11055;50.870;4.316;2024-01-30T09:13:39;12.10;99.90
21787;DHT22;11055;50.870;4.316;2024-01-30T09:16:05;12.00;99.90
21787;DHT22;11055;50.870;4.316;2024-01-30T09:18:30;12.00;99.90
21787;DHT22;11055;50.870;4.316;2024-01-30T09:20:56;12.10;99.90
21787;DHT22;11055;50.870;4.316;2024-01-30T09:23:22;12.10;99.90
21787;DHT22;11055;50.870;4.316;2024-01-30T09:25:48;12.10;99.90
21787;DHT22;11055;50.870;4.316;2024-01-30T09:28:14;12.00;99.90
21787;DHT22;11055;50.870;4.316;2024-01-30T09:30:40;12.00;99.90
21787;DHT22;11055;50.870;4.316;2024-01-30T09:33:06;12.10;99.90
21787;DHT22;11055;50.870;4.316;2024-01-30T09:35:32;12.10;99.90
21787;DHT22;11055;50.870;4.316;2024-01-30T09:37:57;11.90;99.90
21787;DHT22;11055;50.870;4.316;2024-01-30T09:40:24;11.80;99.90
21787;DHT22;11055;50.870;4.316;2024-01-30T09:42:54;11.90;99.90
21787;DHT22;11055;50.870;4.316;2024-01-30T09:45:24;11.90;99.90
21787;DHT22;11055;50.870;4.316;2024-01-30T09:47:50;11.80;99.90
21787;DHT22;11055;50.870;4.316;2024-01-30T09:50:16;11.80;99.90
21787;DHT22;11055;50.870;4.316;2024-01-30T09:52:43;11.70;99.90
21787;DHT22;11055;50.870;4.316;2024-01-30T09:55:09;11.70;99.90
21787;DHT22;11055;50.870;4.316;2024-01-30T09:57:35;11.90;99.90
21787;DHT22;11055;50.870;4.316;2024-01-30T10:00:03;11.90;99.90
21787;DHT22;11055;50.870;4.316;2024-01-30T10:02:32;11.90;99.90
21787;DHT22;11055;50.870;4.316;2024-01-30T10:04:59;11.80;99.90
21787;DHT22;11055;50.870;4.316;2024-01-30T10:07:26;11.80;99.90
21787;DHT22;11055;50.870;4.316;2024-01-30T10:09:53;11.80;99.90
21787;DHT22;11055;50.870;4.316;2024-01-30T10:12:18;11.80;99.90
21787;DHT22;11055;50.870;4.316;2024-01-30T10:14:44;11.90;99.90
21787;DHT22;11055;50.870;4.316;2024-01-30T10:17:11;11.80;99.90
21787;DHT22;11055;50.870;4.316;2024-01-30T10:19:38;11.80;99.90
21787;DHT22;11055;50.870;4.316;2024-01-30T10:22:04;11.60;99.90
21787;DHT22;11055;50.870;4.316;2024-01-30T10:24:30;11.60;99.90
21787;DHT22;11055;50.870;4.316;2024-01-30T10:26:56;11.50;99.90
21787;DHT22;11055;50.870;4.316;2024-01-30T10:29:21;11.60;99.90
21787;DHT22;11055;50.870;4.316;2024-01-30T10:32:04;11.70;99.90
21787;DHT22;11055;50.870;4.316;2024-01-30T10:34:30;11.60;99.90
21787;DHT22;11055;50.870;4.316;2024-01-30T10:37:09;11.60;99.90
21787;DHT22;11055;50.870;4.316;2024-01-30T10:39:41;11.60;99.90
21787;DHT22;11055;50.870;4.316;2024-01-30T10:42:15;11.70;99.90
21787;DHT22;11055;50.870;4.316;2024-01-30T10:45:06;11.60;99.90
21787;DHT22;11055;50.870;4.316;2024-01-30T10:47:34;11.60;99.90
21787;DHT22;11055;50.870;4.316;2024-01-30T10:50:02;11.50;99.90
21787;DHT22;11055;50.870;4.316;2024-01-30T10:52:29;11.40;99.90
21787;DHT22;11055;50.870;4.316;2024-01-30T10:54:56;11.30;99.90
21787;DHT22;11055;50.870;4.316;2024-01-30T10:57:26;11.30;99.90
21787;DHT22;11055;50.870;4.316;2024-01-30T10:59:54;11.30;99.90
21787;DHT22;11055;50.870;4.316;2024-01-30T11:02:20;11.20;99.90
21787;DHT22;11055;50.870;4.316;2024-01-30T11:04:47;11.00;99.90
21787;DHT22;11055;50.870;4.316;2024-01-30T11:07:17;11.00;99.90
21787;DHT22;11055;50.870;4.316;2024-01-30T11:09:54;10.90;99.90
21787;DHT22;11055;50.870;4.316;2024-01-30T11:12:38;10.90;99.90
21787;DHT22;11055;50.870;4.316;2024-01-30T11:15:12;10.80;99.90
21787;DHT22;11055;50.870;4.316;2024-01-30T11:17:53;10.80;99.90
21787;DHT22;11055;50.870;4.316;2024-01-30T11:20:29;10.70;99.90
21787;DHT22;11055;50.870;4.316;2024-01-30T11:22:59;10.80;99.90
21787;DHT22;11055;50.870;4.316;2024-01-30T11:25:26;10.90;99.90
21787;DHT22;11055;50.870;4.316;2024-01-30T11:27:54;11.00;99.90
21787;DHT22;11055;50.870;4.316;2024-01-30T11:30:30;11.00;99.90
21787;DHT22;11055;50.870;4.316;2024-01-30T11:38:07;11.20;99.90
21787;DHT22;11055;50.870;4.316;2024-01-30T11:40:34;11.20;99.90
21787;DHT22;11055;50.870;4.316;2024-01-30T11:43:01;11.30;99.90
21787;DHT22;11055;50.870;4.316;2024-01-30T11:45:27;11.40;99.90
21787;DHT22;11055;50.870;4.316;2024-01-30T11:47:54;11.30;99.90
21787;DHT22;11055;50.870;4.316;2024-01-30T11:50:20;11.30;99.90
21787;DHT22;11055;50.870;4.316;2024-01-30T11:52:46;11.20;99.90
21787;DHT22;11055;50.870;4.316;2024-01-30T11:55:12;11.30;99.90
21787;DHT22;11055;50.870;4.316;2024-01-30T11:57:38;11.30;99.90
21787;DHT22;11055;50.870;4.316;2024-01-30T12:00:05;11.30;99.90
21787;DHT22;11055;50.870;4.316;2024-01-30T12:02:36;11.20;99.90
21787;DHT22;11055;50.870;4.316;2024-01-30T12:05:08;11.20;99.90
21787;DHT22;11055;50.870;4.316;2024-01-30T12:07:35;11.20;99.90
21787;DHT22;11055;50.870;4.316;2024-01-30T12:10:01;11.20;99.90
21787;DHT22;11055;50.870;4.316;2024-01-30T12:12:28;11.30;99.90
21787;DHT22;11055;50.870;4.316;2024-01-30T12:14:55;11.30;99.90
21787;DHT22;11055;50.870;4.316;2024-01-30T12:17:33;11.20;99.90
21787;DHT22;11055;50.870;4.316;2024-01-30T12:22:42;11.30;99.90
21787;DHT22;11055;50.870;4.316;2024-01-30T12:25:12;11.40;99.90
21787;DHT22;11055;50.870;4.316;2024-01-30T12:27:39;11.30;99.90
21787;DHT22;11055;50.870;4.316;2024-01-30T12:30:06;11.40;99.90
21787;DHT22;11055;50.870;4.316;2024-01-30T12:32:35;11.30;99.90
21787;DHT22;11055;50.870;4.316;2024-01-30T12:35:01;11.20;99.90
21787;DHT22;11055;50.870;4.316;2024-01-30T12:37:27;11.30;99.90
21787;DHT22;11055;50.870;4.316;2024-01-30T12:39:52;11.30;99.90
21787;DHT22;11055;50.870;4.316;2024-01-30T12:42:20;11.40;99.90
21787;DHT22;11055;50.870;4.316;2024-01-30T12:44:47;11.50;99.90
21787;DHT22;11055;50.870;4.316;2024-01-30T12:47:13;11.50;99.90
21787;DHT22;11055;50.870;4.316;2024-01-30T12:49:42;11.50;99.90
21787;DHT22;11055;50.870;4.316;2024-01-30T12:52:08;11.50;99.90
21787;DHT22;11055;50.870;4.316;2024-01-30T12:54:34;11.50;99.90
21787;DHT22;11055;50.870;4.316;2024-01-30T12:56:59;11.60;99.90
21787;DHT22;11055;50.870;4.316;2024-01-30T12:59:25;11.60;99.90
21787;DHT22;11055;50.870;4.316;2024-01-30T13:01:51;11.50;99.90
21787;DHT22;11055;50.870;4.316;2024-01-30T13:04:16;11.40;99.90
21787;DHT22;11055;50.870;4.316;2024-01-30T13:06:42;11.00;99.90
21787;DHT22;11055;50.870;4.316;2024-01-30T13:09:08;10.90;99.90
21787;DHT22;11055;50.870;4.316;2024-01-30T13:11:34;10.80;99.90
21787;DHT22;11055;50.870;4.316;2024-01-30T13:14:01;10.80;99.90
21787;DHT22;11055;50.870;4.316;2024-01-30T13:16:27;10.80;99.90
21787;DHT22;11055;50.870;4.316;2024-01-30T13:18:52;10.80;99.90
21787;DHT22;11055;50.870;4.316;2024-01-30T13:21:21;10.80;99.90
21787;DHT22;11055;50.870;4.316;2024-01-30T13:23:46;10.80;99.90
21787;DHT22;11055;50.870;4.316;2024-01-30T13:26:12;10.80;99.90
21787;DHT22;11055;50.870;4.316;2024-01-30T13:28:38;10.70;99.90
21787;DHT22;11055;50.870;4.316;2024-01-30T13:31:04;10.80;99.90
21787;DHT22;11055;50.870;4.316;2024-01-30T13:33:30;10.90;99.90
21787;DHT22;11055;50.870;4.316;2024-01-30T13:35:56;11.00;99.90
21787;DHT22;11055;50.870;4.316;2024-01-30T13:38:22;11.10;99.90
21787;DHT22;11055;50.870;4.316;2024-01-30T13:40:47;11.30;99.90
21787;DHT22;11055;50.870;4.316;2024-01-30T13:43:13;11.40;99.90
21787;DHT22;11055;50.870;4.316;2024-01-30T13:45:39;11.40;99.90
21787;DHT22;11055;50.870;4.316;2024-01-30T13:48:05;11.40;99.90
21787;DHT22;11055;50.870;4.316;2024-01-30T13:50:32;11.30;99.90
21787;DHT22;11055;50.870;4.316;2024-01-30T13:52:58;11.10;99.90
21787;DHT22;11055;50.870;4.316;2024-01-30T13:55:24;11.10;99.90
21787;DHT22;11055;50.870;4.316;2024-01-30T13:57:50;11.10;99.90
21787;DHT22;11055;50.870;4.316;2024-01-30T14:00:16;11.10;99.90
21787;DHT22;11055;50.870;4.316;2024-01-30T14:02:42;11.00;99.90
21787;DHT22;11055;50.870;4.316;2024-01-30T14:05:08;10.80;99.90
21787;DHT22;11055;50.870;4.316;2024-01-30T14:07:36;10.80;99.90
21787;DHT22;11055;50.870;4.316;2024-01-30T14:10:03;10.70;99.90
21787;DHT22;11055;50.870;4.316;2024-01-30T14:12:29;10.70;99.90
21787;DHT22;11055;50.870;4.316;2024-01-30T14:14:55;10.60;99.90
21787;DHT22;11055;50.870;4.316;2024-01-30T14:17:22;10.60;99.90
21787;DHT22;11055;50.870;4.316;2024-01-30T14:19:47;10.70;99.90
21787;DHT22;11055;50.870;4.316;2024-01-30T14:22:13;10.70;99.90
21787;DHT22;11055;50.870;4.316;2024-01-30T14:24:38;10.60;99.90
21787;DHT22;11055;50.870;4.316;2024-01-30T14:27:04;10.60;99.90
21787;DHT22;11055;50.870;4.316;2024-01-30T14:29:30;10.50;99.90
21787;DHT22;11055;50.870;4.316;2024-01-30T14:31:56;10.40;99.90
21787;DHT22;11055;50.870;4.316;2024-01-30T14:34:22;10.30;99.90
21787;DHT22;11055;50.870;4.316;2024-01-30T14:36:48;10.20;99.90
21787;DHT22;11055;50.870;4.316;2024-01-30T14:39:15;10.20;99.90
21787;DHT22;11055;50.870;4.316;2024-01-30T14:41:40;10.20;99.90
21787;DHT22;11055;50.870;4.316;2024-01-30T14:44:06;10.20;99.90
21787;DHT22;11055;50.870;4.316;2024-01-30T14:46:33;10.10;99.90
21787;DHT22;11055;50.870;4.316;2024-01-30T14:48:59;10.10;99.90
21787;DHT22;11055;50.870;4.316;2024-01-30T14:51:24;10.20;99.90
21787;DHT22;11055;50.870;4.316;2024-01-30T14:53:50;10.20;99.90
21787;DHT22;11055;50.870;4.316;2024-01-30T14:56:16;10.10;99.90
21787;DHT22;11055;50.870;4.316;2024-01-30T14:58:43;10.00;99.90
21787;DHT22;11055;50.870;4.316;2024-01-30T15:01:09;10.00;99.90
21787;DHT22;11055;50.870;4.316;2024-01-30T15:03:34;10.00;99.90
21787;DHT22;11055;50.870;4.316;2024-01-30T15:06:01;10.00;99.90
21787;DHT22;11055;50.870;4.316;2024-01-30T15:08:26;10.00;99.90
21787;DHT22;11055;50.870;4.316;2024-01-30T15:10:52;10.00;99.90
21787;DHT22;11055;50.870;4.316;2024-01-30T15:13:19;9.90;99.90
21787;DHT22;11055;50.870;4.316;2024-01-30T15:15:45;10.00;99.90
21787;DHT22;11055;50.870;4.316;2024-01-30T15:18:10;10.00;99.90
21787;DHT22;11055;50.870;4.316;2024-01-30T15:20:36;10.00;99.90
21787;DHT22;11055;50.870;4.316;2024-01-30T15:23:02;10.00;99.90
21787;DHT22;11055;50.870;4.316;2024-01-30T15:25:28;10.10;99.90
21787;DHT22;11055;50.870;4.316;2024-01-30T15:27:54;10.00;99.90
21787;DHT22;11055;50.870;4.316;2024-01-30T15:30:20;10.00;99.90
21787;DHT22;11055;50.870;4.316;2024-01-30T15:32:46;10.00;99.90